KLM51T EHAM-EDDS
Flight info
| Callsign | KLM51T |
|---|---|
| Flight time | 0h 55m |
| Altitude | 35000 |
| Route | EDUPO Z739 MISGO DCT TIVUN DCT DODEN DCT FFM DCT UBENO N850 KRH T128 BADSO BADSO2A |
| Aircraft | A321/M-SDE3FGHIRWY/LB1 |
Departure
| Time | 2026-05-05 13:20 |
|---|---|
| Airport | Amsterdam Airport Schiphol (EHAM) |
Arrival
| Time | 2026-05-05 14:16 |
|---|---|
| Airport | Stuttgart Airport (EDDS) |
| Time | Latitude | Longitude | Altitude | Speed | Heading |
|---|---|---|---|---|---|
| 2026-05-05 12:48 | 52.30504 | 4.76546 | -1 ft | 0 kts | 58° |
| 2026-05-05 13:09 | 52.30500 | 4.76536 | -1 ft | 4 kts | 59° |
| 2026-05-05 13:09 | 52.30492 | 4.76513 | -1 ft | 3 kts | 59° |
| 2026-05-05 13:09 | 52.30483 | 4.76477 | -1 ft | 4 kts | 103° |
| 2026-05-05 13:09 | 52.30497 | 4.76446 | -1 ft | 4 kts | 147° |
| 2026-05-05 13:10 | 52.30506 | 4.76436 | -1 ft | 1 kts | 148° |
| 2026-05-05 13:10 | 52.30507 | 4.76436 | -1 ft | 0 kts | 148° |
| 2026-05-05 13:12 | 52.30503 | 4.76439 | -1 ft | 2 kts | 148° |
| 2026-05-05 13:12 | 52.30475 | 4.76469 | -1 ft | 8 kts | 147° |
| 2026-05-05 13:13 | 52.30408 | 4.76538 | -1 ft | 15 kts | 148° |
| 2026-05-05 13:13 | 52.30312 | 4.76560 | -1 ft | 14 kts | 221° |
| 2026-05-05 13:13 | 52.30260 | 4.76431 | -1 ft | 13 kts | 237° |
| 2026-05-05 13:13 | 52.30214 | 4.76312 | -1 ft | 12 kts | 238° |
| 2026-05-05 13:14 | 52.30167 | 4.76189 | -1 ft | 13 kts | 238° |
| 2026-05-05 13:14 | 52.30118 | 4.76058 | -1 ft | 14 kts | 238° |
| 2026-05-05 13:14 | 52.30065 | 4.75921 | -1 ft | 15 kts | 237° |
| 2026-05-05 13:14 | 52.30009 | 4.75776 | -1 ft | 15 kts | 238° |
| 2026-05-05 13:15 | 52.29950 | 4.75624 | -1 ft | 16 kts | 238° |
| 2026-05-05 13:15 | 52.29890 | 4.75465 | -1 ft | 17 kts | 238° |
| 2026-05-05 13:15 | 52.29836 | 4.75315 | -1 ft | 14 kts | 250° |
| 2026-05-05 13:15 | 52.29861 | 4.75161 | -1 ft | 15 kts | 309° |
| 2026-05-05 13:16 | 52.29935 | 4.75022 | -1 ft | 17 kts | 311° |
| 2026-05-05 13:16 | 52.30017 | 4.74869 | -1 ft | 19 kts | 311° |
| 2026-05-05 13:16 | 52.30102 | 4.74716 | 4 ft | 16 kts | 312° |
| 2026-05-05 13:16 | 52.30157 | 4.74613 | 10 ft | 10 kts | 310° |
| 2026-05-05 13:17 | 52.30212 | 4.74509 | 10 ft | 15 kts | 312° |
| 2026-05-05 13:17 | 52.30293 | 4.74360 | 8 ft | 20 kts | 310° |
| 2026-05-05 13:17 | 52.30378 | 4.74196 | -1 ft | 16 kts | 310° |
| 2026-05-05 13:17 | 52.30425 | 4.74058 | -1 ft | 13 kts | 263° |
| 2026-05-05 13:18 | 52.30408 | 4.73975 | -1 ft | 6 kts | 260° |
| 2026-05-05 13:18 | 52.30408 | 4.73907 | -2 ft | 6 kts | 272° |
| 2026-05-05 13:18 | 52.30410 | 4.73839 | -2 ft | 6 kts | 272° |
| 2026-05-05 13:18 | 52.30427 | 4.73773 | -3 ft | 6 kts | 324° |
| 2026-05-05 13:19 | 52.30467 | 4.73763 | -3 ft | 3 kts | 1° |
| 2026-05-05 13:19 | 52.30469 | 4.73763 | -3 ft | 0 kts | 1° |
| 2026-05-05 13:19 | 52.30471 | 4.73763 | -3 ft | 4 kts | 1° |
| 2026-05-05 13:19 | 52.30715 | 4.73786 | -1 ft | 70 kts | 3° |
| 2026-05-05 13:20 | 52.31412 | 4.73849 | -2 ft | 127 kts | 3° |
| 2026-05-05 13:20 | 52.32441 | 4.73940 | 98 ft | 161 kts | 6° |
| 2026-05-05 13:20 | 52.33521 | 4.74173 | 822 ft | 155 kts | 21° |
| 2026-05-05 13:20 | 52.34517 | 4.74840 | 1448 ft | 158 kts | 23° |
| 2026-05-05 13:21 | 52.35606 | 4.75533 | 1699 ft | 177 kts | 22° |
| 2026-05-05 13:21 | 52.36815 | 4.76288 | 1843 ft | 194 kts | 22° |
| 2026-05-05 13:21 | 52.38064 | 4.77349 | 1951 ft | 214 kts | 39° |
| 2026-05-05 13:21 | 52.39178 | 4.79173 | 2241 ft | 236 kts | 45° |
| 2026-05-05 13:22 | 52.40339 | 4.81138 | 3050 ft | 242 kts | 46° |
| 2026-05-05 13:22 | 52.41445 | 4.83253 | 3840 ft | 248 kts | 57° |
| 2026-05-05 13:22 | 52.42168 | 4.85864 | 4596 ft | 255 kts | 74° |
| 2026-05-05 13:22 | 52.42396 | 4.88784 | 5309 ft | 263 kts | 88° |
| 2026-05-05 13:23 | 52.42397 | 4.91811 | 6034 ft | 268 kts | 90° |
| 2026-05-05 13:23 | 52.42366 | 4.94890 | 6711 ft | 274 kts | 97° |
| 2026-05-05 13:23 | 52.41865 | 4.97917 | 7346 ft | 279 kts | 116° |
| 2026-05-05 13:23 | 52.40784 | 5.00557 | 8041 ft | 281 kts | 135° |
| 2026-05-05 13:24 | 52.39261 | 5.02570 | 8724 ft | 284 kts | 146° |
| 2026-05-05 13:24 | 52.37633 | 5.04432 | 9440 ft | 287 kts | 146° |
| 2026-05-05 13:24 | 52.35982 | 5.06328 | 10091 ft | 292 kts | 145° |
| 2026-05-05 13:24 | 52.34263 | 5.08317 | 10281 ft | 314 kts | 143° |
| 2026-05-05 13:25 | 52.32588 | 5.10794 | 10401 ft | 336 kts | 133° |
| 2026-05-05 13:25 | 52.30987 | 5.13734 | 10551 ft | 356 kts | 132° |
| 2026-05-05 13:25 | 52.29316 | 5.16793 | 11002 ft | 364 kts | 132° |
| 2026-05-05 13:25 | 52.27616 | 5.19888 | 11616 ft | 367 kts | 132° |
| 2026-05-05 13:26 | 52.25896 | 5.23006 | 12221 ft | 372 kts | 132° |
| 2026-05-05 13:26 | 52.24188 | 5.26220 | 12799 ft | 377 kts | 127° |
| 2026-05-05 13:26 | 52.22668 | 5.29721 | 13408 ft | 381 kts | 125° |
| 2026-05-05 13:26 | 52.21131 | 5.33284 | 13942 ft | 385 kts | 126° |
| 2026-05-05 13:27 | 52.19580 | 5.36865 | 14532 ft | 387 kts | 126° |
| 2026-05-05 13:27 | 52.18019 | 5.40451 | 15100 ft | 389 kts | 126° |
| 2026-05-05 13:27 | 52.16446 | 5.44055 | 15690 ft | 391 kts | 126° |
| 2026-05-05 13:27 | 52.14868 | 5.47664 | 16301 ft | 391 kts | 126° |
| 2026-05-05 13:28 | 52.13290 | 5.51271 | 16898 ft | 392 kts | 126° |
| 2026-05-05 13:28 | 52.11706 | 5.54882 | 17474 ft | 393 kts | 127° |
| 2026-05-05 13:28 | 52.10113 | 5.58508 | 17995 ft | 395 kts | 126° |
| 2026-05-05 13:28 | 52.08509 | 5.62153 | 18473 ft | 397 kts | 126° |
| 2026-05-05 13:29 | 52.06893 | 5.65830 | 18887 ft | 401 kts | 126° |
| 2026-05-05 13:29 | 52.05168 | 5.69391 | 19318 ft | 402 kts | 132° |
| 2026-05-05 13:29 | 52.03332 | 5.72838 | 19766 ft | 404 kts | 132° |
| 2026-05-05 13:29 | 52.01482 | 5.76294 | 20190 ft | 406 kts | 132° |
| 2026-05-05 13:30 | 51.99619 | 5.79761 | 20614 ft | 409 kts | 133° |
| 2026-05-05 13:30 | 51.97740 | 5.83251 | 21044 ft | 412 kts | 133° |
| 2026-05-05 13:30 | 51.95847 | 5.86766 | 21457 ft | 414 kts | 133° |
| 2026-05-05 13:30 | 51.93952 | 5.90294 | 21868 ft | 417 kts | 132° |
| 2026-05-05 13:31 | 51.92048 | 5.93847 | 22271 ft | 420 kts | 132° |
| 2026-05-05 13:31 | 51.90129 | 5.97426 | 22704 ft | 422 kts | 133° |
| 2026-05-05 13:31 | 51.88200 | 6.01017 | 23130 ft | 424 kts | 132° |
| 2026-05-05 13:31 | 51.86257 | 6.04621 | 23551 ft | 425 kts | 132° |
| 2026-05-05 13:32 | 51.84305 | 6.08239 | 23895 ft | 427 kts | 132° |
| 2026-05-05 13:32 | 51.82338 | 6.11868 | 24235 ft | 430 kts | 133° |
| 2026-05-05 13:32 | 51.80358 | 6.15503 | 24564 ft | 432 kts | 133° |
| 2026-05-05 13:32 | 51.78388 | 6.19107 | 24918 ft | 434 kts | 133° |
| 2026-05-05 13:33 | 51.76381 | 6.22766 | 25253 ft | 436 kts | 133° |
| 2026-05-05 13:33 | 51.74361 | 6.26446 | 25582 ft | 438 kts | 134° |
| 2026-05-05 13:33 | 51.72338 | 6.30136 | 25910 ft | 440 kts | 134° |
| 2026-05-05 13:33 | 51.70307 | 6.33841 | 26222 ft | 441 kts | 134° |
| 2026-05-05 13:34 | 51.68270 | 6.37552 | 26533 ft | 443 kts | 134° |
| 2026-05-05 13:34 | 51.66225 | 6.41273 | 26846 ft | 445 kts | 134° |
| 2026-05-05 13:34 | 51.64161 | 6.45019 | 27143 ft | 447 kts | 134° |
| 2026-05-05 13:34 | 51.62095 | 6.48758 | 27430 ft | 448 kts | 134° |
| 2026-05-05 13:35 | 51.60013 | 6.52520 | 27717 ft | 450 kts | 134° |
| 2026-05-05 13:35 | 51.57924 | 6.56285 | 27999 ft | 452 kts | 134° |
| 2026-05-05 13:35 | 51.55822 | 6.60066 | 28286 ft | 454 kts | 134° |
| 2026-05-05 13:35 | 51.53711 | 6.63858 | 28606 ft | 455 kts | 135° |
| 2026-05-05 13:36 | 51.51604 | 6.67645 | 29007 ft | 454 kts | 135° |
| 2026-05-05 13:36 | 51.49526 | 6.71380 | 29389 ft | 453 kts | 135° |
| 2026-05-05 13:36 | 51.47427 | 6.75146 | 29733 ft | 453 kts | 135° |
| 2026-05-05 13:36 | 51.45324 | 6.78917 | 30013 ft | 454 kts | 135° |
| 2026-05-05 13:37 | 51.43212 | 6.82697 | 30323 ft | 454 kts | 135° |
| 2026-05-05 13:37 | 51.41114 | 6.86463 | 30651 ft | 453 kts | 134° |
| 2026-05-05 13:37 | 51.39220 | 6.90527 | 30983 ft | 456 kts | 128° |
| 2026-05-05 13:37 | 51.37446 | 6.94725 | 31321 ft | 455 kts | 128° |
| 2026-05-05 13:38 | 51.35666 | 6.98908 | 31691 ft | 454 kts | 129° |
| 2026-05-05 13:38 | 51.33892 | 7.03062 | 32084 ft | 451 kts | 129° |
| 2026-05-05 13:38 | 51.32120 | 7.07201 | 32473 ft | 449 kts | 129° |
| 2026-05-05 13:38 | 51.30354 | 7.11313 | 32855 ft | 448 kts | 129° |
| 2026-05-05 13:39 | 51.28590 | 7.15411 | 33265 ft | 446 kts | 130° |
| 2026-05-05 13:39 | 51.26834 | 7.19488 | 33662 ft | 444 kts | 130° |
| 2026-05-05 13:39 | 51.25089 | 7.23532 | 34012 ft | 442 kts | 130° |
| 2026-05-05 13:39 | 51.23346 | 7.27564 | 34270 ft | 441 kts | 130° |
| 2026-05-05 13:40 | 51.21601 | 7.31598 | 34510 ft | 441 kts | 130° |
| 2026-05-05 13:40 | 51.19855 | 7.35629 | 34750 ft | 441 kts | 130° |
| 2026-05-05 13:40 | 51.16361 | 7.43686 | 34845 ft | 440 kts | 130° |
| 2026-05-05 13:41 | 51.12884 | 7.51683 | 34849 ft | 439 kts | 130° |
| 2026-05-05 13:41 | 51.09399 | 7.59667 | 34831 ft | 438 kts | 130° |
| 2026-05-05 13:42 | 51.05946 | 7.67559 | 34835 ft | 436 kts | 130° |
| 2026-05-05 13:42 | 51.02486 | 7.75462 | 34835 ft | 435 kts | 130° |
| 2026-05-05 13:43 | 50.99028 | 7.83331 | 34836 ft | 435 kts | 131° |
| 2026-05-05 13:43 | 50.95503 | 7.91128 | 34841 ft | 431 kts | 136° |
| 2026-05-05 13:44 | 50.91046 | 7.97150 | 34847 ft | 417 kts | 155° |
| 2026-05-05 13:44 | 50.85725 | 8.00371 | 34850 ft | 406 kts | 171° |
| 2026-05-05 13:45 | 50.80197 | 8.02289 | 34839 ft | 407 kts | 171° |
| 2026-05-05 13:45 | 50.74654 | 8.04249 | 34843 ft | 408 kts | 171° |
| 2026-05-05 13:46 | 50.69108 | 8.06207 | 34847 ft | 409 kts | 171° |
| 2026-05-05 13:46 | 50.63541 | 8.08156 | 34856 ft | 410 kts | 171° |
| 2026-05-05 13:47 | 50.58176 | 8.11367 | 34814 ft | 419 kts | 153° |
| 2026-05-05 13:47 | 50.53287 | 8.16280 | 34819 ft | 420 kts | 152° |
| 2026-05-05 13:48 | 50.48351 | 8.21223 | 34819 ft | 420 kts | 152° |
| 2026-05-05 13:48 | 50.43417 | 8.26158 | 34820 ft | 419 kts | 152° |
| 2026-05-05 13:49 | 50.38491 | 8.31074 | 34823 ft | 419 kts | 152° |
| 2026-05-05 13:49 | 50.33581 | 8.35939 | 34816 ft | 419 kts | 152° |
| 2026-05-05 13:50 | 50.28668 | 8.40792 | 34841 ft | 417 kts | 152° |
| 2026-05-05 13:50 | 50.23763 | 8.45640 | 34837 ft | 416 kts | 152° |
| 2026-05-05 13:51 | 50.19688 | 8.49666 | 34844 ft | 416 kts | 152° |
| 2026-05-05 13:51 | 50.14791 | 8.54489 | 34715 ft | 417 kts | 152° |
| 2026-05-05 13:52 | 50.12338 | 8.56897 | 34280 ft | 415 kts | 152° |
| 2026-05-05 13:52 | 50.09899 | 8.59283 | 33847 ft | 413 kts | 152° |
| 2026-05-05 13:52 | 50.07446 | 8.61572 | 33357 ft | 410 kts | 157° |
| 2026-05-05 13:52 | 50.04826 | 8.63270 | 32855 ft | 407 kts | 165° |
| 2026-05-05 13:53 | 50.02071 | 8.64264 | 32378 ft | 407 kts | 174° |
| 2026-05-05 13:53 | 49.99243 | 8.64742 | 31900 ft | 409 kts | 175° |
| 2026-05-05 13:53 | 49.96400 | 8.65204 | 31439 ft | 412 kts | 175° |
| 2026-05-05 13:53 | 49.93535 | 8.65676 | 30979 ft | 415 kts | 175° |
| 2026-05-05 13:54 | 49.90649 | 8.66159 | 30511 ft | 418 kts | 175° |
| 2026-05-05 13:54 | 49.87750 | 8.66648 | 30075 ft | 421 kts | 175° |
| 2026-05-05 13:54 | 49.84830 | 8.67139 | 29589 ft | 423 kts | 174° |
| 2026-05-05 13:54 | 49.81894 | 8.67635 | 29080 ft | 426 kts | 174° |
| 2026-05-05 13:55 | 49.78980 | 8.68126 | 28587 ft | 427 kts | 174° |
| 2026-05-05 13:55 | 49.76019 | 8.68622 | 28102 ft | 428 kts | 174° |
| 2026-05-05 13:55 | 49.73015 | 8.68861 | 27616 ft | 426 kts | 181° |
| 2026-05-05 13:55 | 49.70107 | 8.68525 | 27152 ft | 424 kts | 185° |
| 2026-05-05 13:56 | 49.67175 | 8.68111 | 26713 ft | 421 kts | 185° |
| 2026-05-05 13:56 | 49.64263 | 8.67709 | 26285 ft | 419 kts | 184° |
| 2026-05-05 13:56 | 49.61326 | 8.67313 | 25854 ft | 416 kts | 184° |
| 2026-05-05 13:56 | 49.58479 | 8.66935 | 25434 ft | 414 kts | 184° |
| 2026-05-05 13:57 | 49.55616 | 8.66557 | 25023 ft | 412 kts | 184° |
| 2026-05-05 13:57 | 49.52763 | 8.66184 | 24625 ft | 410 kts | 184° |
| 2026-05-05 13:57 | 49.49924 | 8.65812 | 24214 ft | 408 kts | 184° |
| 2026-05-05 13:57 | 49.47098 | 8.65439 | 23817 ft | 406 kts | 185° |
| 2026-05-05 13:58 | 49.44293 | 8.65064 | 23421 ft | 405 kts | 185° |
| 2026-05-05 13:58 | 49.41455 | 8.64682 | 22959 ft | 403 kts | 185° |
| 2026-05-05 13:58 | 49.38697 | 8.64312 | 22504 ft | 402 kts | 185° |
| 2026-05-05 13:58 | 49.35919 | 8.63944 | 22036 ft | 400 kts | 185° |
| 2026-05-05 13:59 | 49.30398 | 8.63197 | 21100 ft | 396 kts | 185° |
| 2026-05-05 13:59 | 49.27665 | 8.62782 | 20651 ft | 394 kts | 185° |
| 2026-05-05 14:00 | 49.22240 | 8.61916 | 19744 ft | 389 kts | 185° |
| 2026-05-05 14:00 | 49.19552 | 8.61492 | 19310 ft | 388 kts | 186° |
| 2026-05-05 14:00 | 49.16873 | 8.61073 | 18879 ft | 385 kts | 186° |
| 2026-05-05 14:00 | 49.14218 | 8.60661 | 18454 ft | 382 kts | 186° |
| 2026-05-05 14:01 | 49.11582 | 8.60258 | 18024 ft | 380 kts | 186° |
| 2026-05-05 14:01 | 49.08955 | 8.59862 | 17540 ft | 378 kts | 186° |
| 2026-05-05 14:01 | 49.06350 | 8.59475 | 17063 ft | 376 kts | 185° |
| 2026-05-05 14:01 | 49.03756 | 8.59093 | 16590 ft | 373 kts | 185° |
| 2026-05-05 14:02 | 49.01174 | 8.58711 | 16136 ft | 371 kts | 185° |
| 2026-05-05 14:02 | 48.98604 | 8.58523 | 15678 ft | 369 kts | 178° |
| 2026-05-05 14:02 | 48.96045 | 8.58812 | 15230 ft | 368 kts | 176° |
| 2026-05-05 14:02 | 48.93498 | 8.59121 | 14788 ft | 366 kts | 176° |
| 2026-05-05 14:03 | 48.90968 | 8.59422 | 14353 ft | 364 kts | 176° |
| 2026-05-05 14:03 | 48.88507 | 8.60218 | 13914 ft | 363 kts | 160° |
| 2026-05-05 14:03 | 48.86334 | 8.62155 | 13473 ft | 364 kts | 141° |
| 2026-05-05 14:03 | 48.84687 | 8.65076 | 13032 ft | 366 kts | 122° |
| 2026-05-05 14:04 | 48.83749 | 8.68672 | 12697 ft | 369 kts | 104° |
| 2026-05-05 14:04 | 48.83624 | 8.72551 | 12358 ft | 372 kts | 84° |
| 2026-05-05 14:04 | 48.84082 | 8.76375 | 12028 ft | 372 kts | 81° |
| 2026-05-05 14:04 | 48.84583 | 8.80231 | 11692 ft | 372 kts | 81° |
| 2026-05-05 14:05 | 48.85082 | 8.84086 | 11362 ft | 372 kts | 81° |
| 2026-05-05 14:05 | 48.85577 | 8.87939 | 11036 ft | 370 kts | 81° |
| 2026-05-05 14:05 | 48.86065 | 8.91767 | 10720 ft | 369 kts | 81° |
| 2026-05-05 14:05 | 48.86546 | 8.95578 | 10406 ft | 367 kts | 82° |
| 2026-05-05 14:06 | 48.87025 | 8.99391 | 10093 ft | 366 kts | 82° |
| 2026-05-05 14:06 | 48.87500 | 9.03185 | 9776 ft | 360 kts | 82° |
| 2026-05-05 14:06 | 48.87960 | 9.06848 | 9429 ft | 343 kts | 82° |
| 2026-05-05 14:06 | 48.88397 | 9.10327 | 9101 ft | 329 kts | 82° |
| 2026-05-05 14:07 | 48.88813 | 9.13676 | 8755 ft | 316 kts | 82° |
| 2026-05-05 14:07 | 48.89213 | 9.16918 | 8436 ft | 310 kts | 82° |
| 2026-05-05 14:07 | 48.89604 | 9.20123 | 8126 ft | 306 kts | 82° |
| 2026-05-05 14:07 | 48.89990 | 9.23288 | 7818 ft | 303 kts | 82° |
| 2026-05-05 14:08 | 48.90375 | 9.26423 | 7499 ft | 300 kts | 82° |
| 2026-05-05 14:08 | 48.90709 | 9.29522 | 7202 ft | 294 kts | 90° |
| 2026-05-05 14:08 | 48.90530 | 9.32526 | 6912 ft | 285 kts | 108° |
| 2026-05-05 14:08 | 48.89770 | 9.35230 | 6609 ft | 271 kts | 126° |
| 2026-05-05 14:09 | 48.88588 | 9.37354 | 6319 ft | 257 kts | 142° |
| 2026-05-05 14:09 | 48.87219 | 9.39018 | 6029 ft | 250 kts | 144° |
| 2026-05-05 14:09 | 48.85885 | 9.40638 | 5802 ft | 241 kts | 143° |
| 2026-05-05 14:09 | 48.84596 | 9.42210 | 5539 ft | 235 kts | 143° |
| 2026-05-05 14:10 | 48.83323 | 9.43760 | 5283 ft | 233 kts | 143° |
| 2026-05-05 14:10 | 48.82081 | 9.45272 | 5032 ft | 226 kts | 143° |
| 2026-05-05 14:10 | 48.80879 | 9.46735 | 4809 ft | 216 kts | 144° |
| 2026-05-05 14:10 | 48.79721 | 9.48140 | 4556 ft | 211 kts | 144° |
| 2026-05-05 14:11 | 48.78448 | 9.49177 | 4367 ft | 206 kts | 163° |
| 2026-05-05 14:11 | 48.77067 | 9.49480 | 4188 ft | 199 kts | 183° |
| 2026-05-05 14:11 | 48.75725 | 9.49071 | 4061 ft | 196 kts | 201° |
| 2026-05-05 14:11 | 48.74567 | 9.48033 | 3986 ft | 192 kts | 220° |
| 2026-05-05 14:12 | 48.73720 | 9.46538 | 3985 ft | 189 kts | 238° |
| 2026-05-05 14:12 | 48.73218 | 9.44708 | 3887 ft | 187 kts | 252° |
| 2026-05-05 14:12 | 48.72871 | 9.42843 | 3682 ft | 182 kts | 253° |
| 2026-05-05 14:12 | 48.72538 | 9.41057 | 3445 ft | 169 kts | 253° |
| 2026-05-05 14:13 | 48.72225 | 9.39390 | 3226 ft | 162 kts | 254° |
| 2026-05-05 14:13 | 48.71916 | 9.37741 | 3019 ft | 162 kts | 255° |
| 2026-05-05 14:13 | 48.71614 | 9.36132 | 2831 ft | 159 kts | 255° |
| 2026-05-05 14:13 | 48.71322 | 9.34581 | 2613 ft | 149 kts | 255° |
| 2026-05-05 14:14 | 48.71042 | 9.33093 | 2439 ft | 145 kts | 256° |
| 2026-05-05 14:14 | 48.70765 | 9.31621 | 2242 ft | 146 kts | 255° |
| 2026-05-05 14:14 | 48.70490 | 9.30161 | 2028 ft | 144 kts | 255° |
| 2026-05-05 14:14 | 48.70213 | 9.28691 | 1826 ft | 145 kts | 256° |
| 2026-05-05 14:15 | 48.69937 | 9.27225 | 1627 ft | 144 kts | 255° |
| 2026-05-05 14:15 | 48.69661 | 9.25775 | 1451 ft | 144 kts | 255° |
| 2026-05-05 14:15 | 48.69392 | 9.24320 | 1270 ft | 142 kts | 254° |
| 2026-05-05 14:15 | 48.69132 | 9.22948 | 1219 ft | 120 kts | 253° |
| 2026-05-05 14:16 | 48.68970 | 9.22092 | 1240 ft | 67 kts | 254° |
| 2026-05-05 14:16 | 48.68862 | 9.21553 | 1252 ft | 39 kts | 255° |
| 2026-05-05 14:16 | 48.68814 | 9.21253 | 1258 ft | 24 kts | 264° |
| 2026-05-05 14:16 | 48.68827 | 9.21035 | 1262 ft | 13 kts | 282° |
| 2026-05-05 14:17 | 48.68843 | 9.20936 | 1271 ft | 7 kts | 283° |
| 2026-05-05 14:17 | 48.68851 | 9.20885 | 1272 ft | 5 kts | 284° |
| 2026-05-05 14:17 | 48.68862 | 9.20823 | 1271 ft | 8 kts | 284° |
| 2026-05-05 14:17 | 48.68876 | 9.20737 | 1276 ft | 8 kts | 281° |
| 2026-05-05 14:18 | 48.68872 | 9.20662 | 1276 ft | 8 kts | 255° |
| 2026-05-05 14:18 | 48.68852 | 9.20555 | 1278 ft | 13 kts | 254° |
| 2026-05-05 14:18 | 48.68826 | 9.20414 | 1283 ft | 13 kts | 254° |
| 2026-05-05 14:18 | 48.68804 | 9.20298 | 1284 ft | 12 kts | 253° |
| 2026-05-05 14:19 | 48.68774 | 9.20144 | 1288 ft | 17 kts | 253° |
| 2026-05-05 14:19 | 48.68762 | 9.20009 | 1292 ft | 11 kts | 289° |
| 2026-05-05 14:19 | 48.68808 | 9.19927 | 1296 ft | 11 kts | 315° |
| 2026-05-05 14:19 | 48.68876 | 9.19874 | 1302 ft | 10 kts | 326° |
| 2026-05-05 14:20 | 48.68883 | 9.19785 | 1305 ft | 11 kts | 255° |
| 2026-05-05 14:20 | 48.68866 | 9.19690 | 1308 ft | 8 kts | 254° |
| 2026-05-05 14:20 | 48.68860 | 9.19628 | 1309 ft | 4 kts | 290° |
| 2026-05-05 14:20 | 48.68883 | 9.19599 | 1312 ft | 4 kts | 334° |
| 2026-05-05 14:21 | 48.68902 | 9.19591 | 1313 ft | 1 kts | 343° |
| 2026-05-05 14:21 | 48.68915 | 9.19585 | 1314 ft | 2 kts | 343° |
| 2026-05-05 14:21 | 48.68925 | 9.19581 | 1314 ft | 0 kts | 344° |